sensor_id;sensor_type;location;lat;lon;timestamp;P1;durP1;ratioP1;P2;durP2;ratioP2
71610;SDS011;59459;51.172;6.682;2022-12-15T13:42:31;46.83;;;19.67;;
71610;SDS011;59459;51.172;6.682;2022-12-15T13:45:03;44.67;;;19.95;;
71610;SDS011;59459;51.172;6.682;2022-12-15T13:47:30;51.50;;;21.08;;
71610;SDS011;59459;51.172;6.682;2022-12-15T13:49:57;51.00;;;21.60;;
71610;SDS011;59459;51.172;6.682;2022-12-15T13:52:30;50.90;;;22.00;;
71610;SDS011;59459;51.172;6.682;2022-12-15T13:55:01;49.65;;;20.52;;
71610;SDS011;59459;51.172;6.682;2022-12-15T13:57:28;49.58;;;21.15;;
71610;SDS011;59459;51.172;6.682;2022-12-15T14:00:00;52.83;;;22.13;;
71610;SDS011;59459;51.172;6.682;2022-12-15T14:02:32;54.05;;;22.88;;
71610;SDS011;59459;51.172;6.682;2022-12-15T14:05:31;58.13;;;22.30;;
71610;SDS011;59459;51.172;6.682;2022-12-15T14:10:18;51.63;;;23.02;;
71610;SDS011;59459;51.172;6.682;2022-12-15T14:12:44;54.50;;;21.33;;
71610;SDS011;59459;51.172;6.682;2022-12-15T14:15:14;53.57;;;21.47;;
71610;SDS011;59459;51.172;6.682;2022-12-15T14:17:39;57.05;;;23.02;;
71610;SDS011;59459;51.172;6.682;2022-12-15T14:20:12;55.20;;;21.10;;
71610;SDS011;59459;51.172;6.682;2022-12-15T14:22:41;50.28;;;20.83;;
71610;SDS011;59459;51.172;6.682;2022-12-15T14:25:15;55.87;;;21.70;;
71610;SDS011;59459;51.172;6.682;2022-12-15T14:27:42;55.47;;;22.10;;
71610;SDS011;59459;51.172;6.682;2022-12-15T14:30:10;63.77;;;22.00;;
71610;SDS011;59459;51.172;6.682;2022-12-15T14:32:36;63.72;;;24.42;;
71610;SDS011;59459;51.172;6.682;2022-12-15T14:35:02;58.45;;;22.05;;
71610;SDS011;59459;51.172;6.682;2022-12-15T14:37:27;57.17;;;22.53;;
71610;SDS011;59459;51.172;6.682;2022-12-15T14:39:53;54.83;;;21.23;;
71610;SDS011;59459;51.172;6.682;2022-12-15T14:42:22;53.43;;;20.77;;
71610;SDS011;59459;51.172;6.682;2022-12-15T14:44:49;54.97;;;21.35;;
71610;SDS011;59459;51.172;6.682;2022-12-15T14:47:16;50.95;;;21.00;;
71610;SDS011;59459;51.172;6.682;2022-12-15T14:49:43;51.33;;;22.02;;
71610;SDS011;59459;51.172;6.682;2022-12-15T14:52:19;56.17;;;21.33;;
71610;SDS011;59459;51.172;6.682;2022-12-15T14:54:51;55.17;;;22.63;;
71610;SDS011;59459;51.172;6.682;2022-12-15T14:57:21;56.17;;;21.10;;
71610;SDS011;59459;51.172;6.682;2022-12-15T14:59:47;49.03;;;20.83;;
71610;SDS011;59459;51.172;6.682;2022-12-15T15:02:20;55.37;;;21.37;;
71610;SDS011;59459;51.172;6.682;2022-12-15T15:04:53;56.63;;;22.33;;
71610;SDS011;59459;51.172;6.682;2022-12-15T15:07:20;58.10;;;23.38;;
71610;SDS011;59459;51.172;6.682;2022-12-15T15:09:46;60.88;;;22.17;;
71610;SDS011;59459;51.172;6.682;2022-12-15T15:12:16;56.10;;;22.33;;
71610;SDS011;59459;51.172;6.682;2022-12-15T15:14:57;59.53;;;21.93;;
71610;SDS011;59459;51.172;6.682;2022-12-15T15:17:36;50.03;;;20.40;;
71610;SDS011;59459;51.172;6.682;2022-12-15T15:20:03;55.53;;;22.25;;
71610;SDS011;59459;51.172;6.682;2022-12-15T15:24:58;56.10;;;21.30;;
71610;SDS011;59459;51.172;6.682;2022-12-15T15:27:25;56.37;;;21.57;;
71610;SDS011;59459;51.172;6.682;2022-12-15T15:29:51;56.30;;;21.50;;
71610;SDS011;59459;51.172;6.682;2022-12-15T15:32:18;57.27;;;22.57;;
71610;SDS011;59459;51.172;6.682;2022-12-15T15:34:44;60.40;;;22.08;;
71610;SDS011;59459;51.172;6.682;2022-12-15T15:37:21;54.15;;;20.35;;
71610;SDS011;59459;51.172;6.682;2022-12-15T15:39:47;58.95;;;21.95;;
71610;SDS011;59459;51.172;6.682;2022-12-15T15:42:13;57.40;;;21.50;;
71610;SDS011;59459;51.172;6.682;2022-12-15T15:44:39;53.55;;;20.75;;
71610;SDS011;59459;51.172;6.682;2022-12-15T15:47:04;53.43;;;21.07;;
71610;SDS011;59459;51.172;6.682;2022-12-15T15:49:30;60.08;;;23.67;;
71610;SDS011;59459;51.172;6.682;2022-12-15T15:51:55;56.00;;;24.33;;
71610;SDS011;59459;51.172;6.682;2022-12-15T15:54:21;60.33;;;22.13;;
71610;SDS011;59459;51.172;6.682;2022-12-15T15:56:47;59.88;;;23.42;;
71610;SDS011;59459;51.172;6.682;2022-12-15T15:59:13;60.70;;;24.30;;
71610;SDS011;59459;51.172;6.682;2022-12-15T16:01:40;59.07;;;23.83;;
71610;SDS011;59459;51.172;6.682;2022-12-15T16:04:05;53.50;;;22.70;;
71610;SDS011;59459;51.172;6.682;2022-12-15T16:06:30;57.67;;;23.13;;
71610;SDS011;59459;51.172;6.682;2022-12-15T16:08:56;62.10;;;24.30;;
71610;SDS011;59459;51.172;6.682;2022-12-15T16:11:22;59.00;;;23.83;;
71610;SDS011;59459;51.172;6.682;2022-12-15T16:13:48;57.33;;;23.23;;
71610;SDS011;59459;51.172;6.682;2022-12-15T16:16:15;59.03;;;22.83;;
71610;SDS011;59459;51.172;6.682;2022-12-15T16:18:41;59.38;;;24.42;;
71610;SDS011;59459;51.172;6.682;2022-12-15T16:21:08;58.33;;;22.93;;
71610;SDS011;59459;51.172;6.682;2022-12-15T16:23:34;61.10;;;24.58;;
71610;SDS011;59459;51.172;6.682;2022-12-15T16:26:01;64.78;;;25.15;;
71610;SDS011;59459;51.172;6.682;2022-12-15T16:28:27;57.93;;;23.33;;
71610;SDS011;59459;51.172;6.682;2022-12-15T16:30:53;59.00;;;23.90;;
71610;SDS011;59459;51.172;6.682;2022-12-15T16:33:18;62.23;;;24.17;;
71610;SDS011;59459;51.172;6.682;2022-12-15T16:35:43;59.00;;;23.60;;
71610;SDS011;59459;51.172;6.682;2022-12-15T16:38:32;56.17;;;23.65;;
71610;SDS011;59459;51.172;6.682;2022-12-15T16:40:57;58.97;;;24.52;;
71610;SDS011;59459;51.172;6.682;2022-12-15T16:43:28;57.43;;;23.33;;
71610;SDS011;59459;51.172;6.682;2022-12-15T16:45:53;61.28;;;24.13;;
71610;SDS011;59459;51.172;6.682;2022-12-15T16:48:20;65.35;;;26.30;;
71610;SDS011;59459;51.172;6.682;2022-12-15T16:50:49;61.63;;;26.20;;
71610;SDS011;59459;51.172;6.682;2022-12-15T16:53:15;66.82;;;25.48;;
71610;SDS011;59459;51.172;6.682;2022-12-15T16:55:42;59.25;;;23.90;;
71610;SDS011;59459;51.172;6.682;2022-12-15T16:58:08;62.95;;;25.38;;
71610;SDS011;59459;51.172;6.682;2022-12-15T17:00:35;61.33;;;24.50;;
71610;SDS011;59459;51.172;6.682;2022-12-15T17:03:00;64.93;;;24.73;;
71610;SDS011;59459;51.172;6.682;2022-12-15T17:05:32;63.55;;;25.45;;
71610;SDS011;59459;51.172;6.682;2022-12-15T17:07:58;62.30;;;25.77;;
71610;SDS011;59459;51.172;6.682;2022-12-15T17:10:25;60.83;;;25.20;;
71610;SDS011;59459;51.172;6.682;2022-12-15T17:12:51;70.67;;;26.20;;
71610;SDS011;59459;51.172;6.682;2022-12-15T17:17:42;64.27;;;24.63;;
71610;SDS011;59459;51.172;6.682;2022-12-15T17:20:14;63.65;;;25.08;;
71610;SDS011;59459;51.172;6.682;2022-12-15T17:22:40;67.78;;;26.35;;
71610;SDS011;59459;51.172;6.682;2022-12-15T17:25:05;66.37;;;28.77;;
71610;SDS011;59459;51.172;6.682;2022-12-15T17:27:34;62.22;;;26.35;;
71610;SDS011;59459;51.172;6.682;2022-12-15T17:29:59;62.33;;;24.80;;
71610;SDS011;59459;51.172;6.682;2022-12-15T17:32:25;59.05;;;24.38;;
71610;SDS011;59459;51.172;6.682;2022-12-15T17:34:50;56.03;;;23.70;;
71610;SDS011;59459;51.172;6.682;2022-12-15T17:37:16;63.63;;;25.00;;
71610;SDS011;59459;51.172;6.682;2022-12-15T17:39:41;62.40;;;22.63;;
71610;SDS011;59459;51.172;6.682;2022-12-15T17:42:17;63.22;;;26.05;;
71610;SDS011;59459;51.172;6.682;2022-12-15T17:44:43;62.58;;;24.20;;
71610;SDS011;59459;51.172;6.682;2022-12-15T17:47:10;55.03;;;23.17;;
71610;SDS011;59459;51.172;6.682;2022-12-15T17:49:36;66.83;;;24.87;;
71610;SDS011;59459;51.172;6.682;2022-12-15T17:52:02;61.33;;;25.00;;
71610;SDS011;59459;51.172;6.682;2022-12-15T17:54:28;61.70;;;24.30;;
71610;SDS011;59459;51.172;6.682;2022-12-15T17:56:54;56.83;;;23.63;;
71610;SDS011;59459;51.172;6.682;2022-12-15T17:59:19;59.77;;;25.43;;
71610;SDS011;59459;51.172;6.682;2022-12-15T18:01:45;55.45;;;24.02;;
71610;SDS011;59459;51.172;6.682;2022-12-15T18:04:10;54.67;;;22.80;;
71610;SDS011;59459;51.172;6.682;2022-12-15T18:09:38;62.67;;;24.33;;
